Time;durP1;ratioP1;P1;durP2;ratioP2;P2;SDS_P1;SDS_P2;PMS_P1;PMS_P2;Temp;Humidity;BMP_temperature;BMP_pressure;BME280_temperature;BME280_humidity;BME280_pressure;Samples;Min_cycle;Max_cycle;Signal;HPM_P1;HPM_P2
2021/05/14 00:01:49;;;;;;;0.40;0.30;;;8.90;99.90;;;;;;5071083;28;20762;-73
2021/05/14 00:04:18;;;;;;;0.40;0.20;;;8.90;99.90;;;;;;5070830;28;20380;-72
2021/05/14 00:06:45;;;;;;;0.40;0.20;;;8.80;99.90;;;;;;5071083;28;20395;-72
2021/05/14 00:09:10;;;;;;;0.40;0.20;;;8.80;99.90;;;;;;5070914;28;20411;-72
2021/05/14 00:11:36;;;;;;;0.40;0.30;;;8.70;99.90;;;;;;5070688;28;20884;-75
2021/05/14 00:14:02;;;;;;;0.40;0.20;;;8.70;99.90;;;;;;5070703;28;20412;-72
2021/05/14 00:16:29;;;;;;;0.40;0.30;;;8.60;99.90;;;;;;5070978;28;20376;-73
2021/05/14 00:18:54;;;;;;;0.40;0.30;;;8.50;99.90;;;;;;5070223;28;20395;-73
2021/05/14 00:21:20;;;;;;;0.40;0.20;;;8.40;99.90;;;;;;5070860;28;20376;-72
2021/05/14 00:23:46;;;;;;;0.40;0.20;;;9.00;99.90;;;;;;5070830;28;20376;-72
2021/05/14 00:26:11;;;;;;;0.40;0.20;;;9.10;99.90;;;;;;5070092;28;20466;-72
2021/05/14 00:28:37;;;;;;;0.40;0.20;;;8.60;99.90;;;;;;5070627;28;20383;-72
2021/05/14 00:31:03;;;;;;;0.40;0.22;;;8.60;99.90;;;;;;5070145;28;20857;-72
2021/05/14 00:33:28;;;;;;;0.40;0.20;;;8.40;99.90;;;;;;5070723;28;20853;-72
2021/05/14 00:35:54;;;;;;;0.40;0.20;;;8.30;99.90;;;;;;5069976;28;20407;-72
2021/05/14 00:38:20;;;;;;;0.40;0.20;;;8.40;99.90;;;;;;5070402;28;20403;-72
2021/05/14 00:40:46;;;;;;;0.40;0.30;;;9.00;99.90;;;;;;5070690;28;20387;-72
2021/05/14 00:43:11;;;;;;;0.40;0.20;;;8.30;99.90;;;;;;5069995;28;20825;-72
2021/05/14 00:45:37;;;;;;;0.50;0.40;;;9.20;99.90;;;;;;5070316;28;20878;-72
2021/05/14 00:48:03;;;;;;;0.40;0.23;;;8.20;99.90;;;;;;5069925;28;20379;-72
2021/05/14 00:50:29;;;;;;;0.40;0.20;;;8.10;99.90;;;;;;5070392;28;20390;-72
2021/05/14 00:52:54;;;;;;;0.40;0.30;;;9.10;99.90;;;;;;5069565;28;20391;-73
2021/05/14 00:55:20;;;;;;;0.40;0.20;;;8.10;99.90;;;;;;5070518;28;20383;-72
2021/05/14 00:57:45;;;;;;;0.40;0.20;;;8.40;99.90;;;;;;5070665;28;20872;-73
2021/05/14 01:00:12;;;;;;;0.40;0.30;;;8.10;99.90;;;;;;5069818;28;20403;-72
2021/05/14 01:02:38;;;;;;;0.40;0.20;;;8.30;99.90;;;;;;5070444;28;20399;-73
2021/05/14 01:05:04;;;;;;;0.40;0.20;;;8.30;99.90;;;;;;5068450;28;20418;-73
2021/05/14 01:07:30;;;;;;;0.40;0.20;;;8.20;99.90;;;;;;5062228;28;20397;-73
2021/05/14 01:09:55;;;;;;;0.40;0.20;;;8.80;99.90;;;;;;5054003;28;20381;-73
2021/05/14 01:12:21;;;;;;;1.10;0.60;;;8.00;99.90;;;;;;5054276;28;20476;-72
2021/05/14 01:14:47;;;;;;;0.40;0.30;;;8.00;99.90;;;;;;5054383;28;20389;-72
2021/05/14 01:17:13;;;;;;;0.40;0.20;;;8.50;99.90;;;;;;5066748;28;20368;-72
2021/05/14 01:19:40;;;;;;;0.40;0.23;;;9.00;99.90;;;;;;5074146;28;20494;-72
2021/05/14 01:22:06;;;;;;;0.40;0.20;;;8.20;99.90;;;;;;5073709;28;20379;-73
2021/05/14 01:24:32;;;;;;;0.40;0.20;;;8.80;99.90;;;;;;5074152;28;20382;-72
2021/05/14 01:27:02;;;;;;;0.40;0.20;;;8.30;99.90;;;;;;5073335;28;20388;-73
2021/05/14 01:29:28;;;;;;;0.40;0.20;;;8.20;99.90;;;;;;5073813;28;20453;-72
2021/05/14 01:31:53;;;;;;;0.40;0.30;;;8.10;99.90;;;;;;5074097;28;20388;-73
2021/05/14 01:34:19;;;;;;;0.40;0.20;;;8.50;99.90;;;;;;5073510;28;20703;-73
2021/05/14 01:36:45;;;;;;;0.40;0.40;;;8.60;99.90;;;;;;5074037;28;20411;-73
2021/05/14 01:39:12;;;;;;;0.40;0.30;;;8.20;99.90;;;;;;5073241;28;20412;-73
2021/05/14 01:41:39;;;;;;;0.40;0.30;;;8.80;99.90;;;;;;5073917;28;20382;-72
2021/05/14 01:44:05;;;;;;;0.40;0.20;;;8.10;99.90;;;;;;5070388;28;20385;-73
2021/05/14 01:46:31;;;;;;;0.40;0.30;;;9.20;99.90;;;;;;5053945;28;20452;-73
2021/05/14 01:48:57;;;;;;;0.40;0.25;;;8.40;99.90;;;;;;5053021;28;20386;-73
2021/05/14 01:51:23;;;;;;;0.40;0.20;;;8.20;99.90;;;;;;5053805;28;20377;-72
2021/05/14 01:53:53;;;;;;;0.50;0.50;;;8.00;99.90;;;;;;5053825;28;20688;-73
2021/05/14 01:56:19;;;;;;;0.40;0.30;;;8.20;99.90;;;;;;5053202;28;20477;-72
2021/05/14 01:58:46;;;;;;;0.40;0.20;;;8.00;99.90;;;;;;5053405;28;20420;-72
2021/05/14 02:01:12;;;;;;;0.40;0.30;;;8.40;99.90;;;;;;5062069;28;20469;-72
2021/05/14 02:03:38;;;;;;;0.40;0.20;;;8.10;99.90;;;;;;5073455;28;20378;-73
2021/05/14 02:06:04;;;;;;;0.50;0.50;;;8.00;99.90;;;;;;5073120;28;20384;-73
2021/05/14 02:08:31;;;;;;;0.40;0.20;;;8.50;99.90;;;;;;5073240;28;20380;-73
2021/05/14 02:10:56;;;;;;;0.40;0.20;;;8.20;99.90;;;;;;5073493;28;20437;-73
2021/05/14 02:13:22;;;;;;;0.40;0.20;;;8.20;99.90;;;;;;5072668;28;20780;-73
2021/05/14 02:15:48;;;;;;;0.40;0.20;;;8.10;99.90;;;;;;5073386;28;20501;-73
2021/05/14 02:18:13;;;;;;;0.40;0.20;;;8.60;99.90;;;;;;5072752;28;20438;-73
2021/05/14 02:20:39;;;;;;;0.40;0.20;;;7.60;99.90;;;;;;5073012;28;20518;-73
2021/05/14 02:23:05;;;;;;;0.40;0.20;;;7.90;99.90;;;;;;5072584;28;20414;-73
2021/05/14 02:25:30;;;;;;;0.40;0.20;;;7.80;99.90;;;;;;5071920;28;20395;-72
2021/05/14 02:27:56;;;;;;;0.90;0.90;;;8.30;99.90;;;;;;5073229;28;20400;-72
2021/05/14 02:30:22;;;;;;;0.40;0.30;;;7.50;99.90;;;;;;5072346;28;20384;-72
2021/05/14 02:32:48;;;;;;;0.40;0.20;;;7.80;99.90;;;;;;5073064;28;20379;-73
2021/05/14 02:35:15;;;;;;;0.40;0.20;;;7.80;99.90;;;;;;5071961;28;20396;-73
2021/05/14 02:37:41;;;;;;;0.40;0.20;;;7.30;99.90;;;;;;5072876;28;20371;-73
2021/05/14 02:40:08;;;;;;;0.40;0.20;;;7.80;99.90;;;;;;5072351;28;20786;-73
2021/05/14 02:42:33;;;;;;;0.40;0.30;;;7.80;99.90;;;;;;5072692;28;20472;-73
2021/05/14 02:44:59;;;;;;;0.40;0.30;;;8.00;99.90;;;;;;5072719;28;20865;-73
2021/05/14 02:47:27;;;;;;;0.40;0.20;;;7.90;99.90;;;;;;5072830;28;20834;-73
2021/05/14 02:49:53;;;;;;;0.40;0.20;;;7.90;99.90;;;;;;5072575;28;20475;-73
2021/05/14 02:52:18;;;;;;;0.40;0.20;;;7.90;99.90;;;;;;5072044;28;20813;-73
2021/05/14 02:54:44;;;;;;;0.40;0.20;;;7.60;99.90;;;;;;5072550;28;20765;-73
2021/05/14 02:57:10;;;;;;;0.40;0.20;;;7.80;99.90;;;;;;5071425;28;20401;-73
2021/05/14 02:59:35;;;;;;;0.40;0.30;;;7.80;99.90;;;;;;5072445;28;20861;-73
2021/05/14 03:02:01;;;;;;;0.40;0.20;;;8.20;99.90;;;;;;5071915;28;20390;-76
2021/05/14 03:04:26;;;;;;;0.40;0.30;;;8.30;99.90;;;;;;5072344;28;20395;-73
2021/05/14 03:06:52;;;;;;;0.40;0.30;;;8.00;99.90;;;;;;5065709;28;20869;-73
2021/05/14 03:09:18;;;;;;;0.40;0.30;;;7.90;99.90;;;;;;5051796;28;20420;-73
2021/05/14 03:11:44;;;;;;;0.40;0.20;;;8.20;99.90;;;;;;5065410;28;20539;-73
2021/05/14 03:14:09;;;;;;;3.00;0.60;;;8.00;99.90;;;;;;5071593;28;20730;-73
2021/05/14 03:16:36;;;;;;;0.40;0.20;;;8.00;99.90;;;;;;5071859;28;20388;-73
2021/05/14 03:19:03;;;;;;;0.40;0.20;;;8.10;99.90;;;;;;5071423;28;20415;-76
2021/05/14 03:21:30;;;;;;;0.40;0.20;;;8.10;99.90;;;;;;5064045;28;20887;-73
2021/05/14 03:23:57;;;;;;;0.40;0.20;;;8.30;99.90;;;;;;5051941;28;20392;-73
2021/05/14 03:26:23;;;;;;;0.40;0.30;;;8.70;99.90;;;;;;5051227;28;20398;-72
2021/05/14 03:28:49;;;;;;;0.40;0.20;;;7.90;99.90;;;;;;5051768;28;20396;-73
2021/05/14 03:31:14;;;;;;;0.40;0.30;;;7.80;99.90;;;;;;5050487;28;20374;-73
2021/05/14 03:33:40;;;;;;;0.40;0.30;;;8.30;99.90;;;;;;5052092;28;20377;-72
2021/05/14 03:36:06;;;;;;;0.40;0.40;;;7.70;99.90;;;;;;5050975;28;20398;-73
2021/05/14 03:38:33;;;;;;;0.40;0.30;;;7.80;99.90;;;;;;5051429;28;20405;-73
2021/05/14 03:41:04;;;;;;;0.40;0.20;;;8.50;99.90;;;;;;5051650;28;20393;-72
2021/05/14 03:43:31;;;;;;;0.40;0.28;;;8.10;99.90;;;;;;5051773;28;20389;-73
2021/05/14 03:45:57;;;;;;;0.40;0.30;;;7.60;99.90;;;;;;5051258;28;20431;-73
2021/05/14 03:48:23;;;;;;;0.40;0.20;;;7.70;99.90;;;;;;5069735;28;20384;-72
2021/05/14 03:50:53;;;;;;;0.40;0.20;;;7.60;99.90;;;;;;5071671;28;20451;-73
2021/05/14 03:53:20;;;;;;;0.40;0.20;;;7.60;99.90;;;;;;5070739;28;20500;-73
2021/05/14 03:55:46;;;;;;;0.40;0.20;;;7.80;99.90;;;;;;5071248;28;20411;-73
2021/05/14 03:58:12;;;;;;;0.40;0.20;;;7.90;99.90;;;;;;5070707;28;20820;-73
2021/05/14 04:00:37;;;;;;;0.40;0.20;;;7.60;99.90;;;;;;5071469;28;20425;-73
2021/05/14 04:03:04;;;;;;;0.40;0.20;;;7.40;99.90;;;;;;5071434;28;20371;-73
2021/05/14 04:05:30;;;;;;;0.40;0.30;;;7.30;99.90;;;;;;5071517;28;20407;-73
2021/05/14 04:07:55;;;;;;;0.40;0.30;;;7.40;99.90;;;;;;5071391;28;20938;-73
2021/05/14 04:10:47;;;;;;;0.40;0.20;;;7.60;99.90;;;;;;5070968;28;20384;-71
2021/05/14 04:16:06;;;;;;;0.40;0.20;;;7.70;99.90;;;;;;5071166;28;20807;-75
2021/05/14 04:18:36;;;;;;;0.70;0.70;;;8.10;99.90;;;;;;5071335;28;20549;-72
2021/05/14 04:21:02;;;;;;;0.40;0.20;;;7.50;99.90;;;;;;5071200;28;20415;-72
2021/05/14 04:23:28;;;;;;;0.40;0.20;;;7.90;99.90;;;;;;5070493;28;20380;-73
2021/05/14 04:25:54;;;;;;;0.40;0.20;;;7.70;99.90;;;;;;5071008;28;20748;-73
2021/05/14 04:28:19;;;;;;;0.40;0.20;;;8.20;99.90;;;;;;5070805;28;20430;-73
2021/05/14 04:30:45;;;;;;;0.40;0.20;;;7.60;99.90;;;;;;5070851;28;20388;-73
2021/05/14 04:33:11;;;;;;;0.40;0.20;;;7.50;99.90;;;;;;5070638;28;20380;-73
2021/05/14 04:35:36;;;;;;;0.40;0.20;;;7.20;99.90;;;;;;5070981;28;20400;-73
2021/05/14 04:38:02;;;;;;;0.40;0.20;;;7.40;99.90;;;;;;5070833;28;20430;-72
2021/05/14 04:40:27;;;;;;;0.40;0.20;;;7.40;99.90;;;;;;5070202;28;20888;-73
2021/05/14 04:42:58;;;;;;;0.40;0.20;;;7.40;99.90;;;;;;5070311;28;20817;-73
2021/05/14 04:45:24;;;;;;;0.40;0.20;;;7.40;99.90;;;;;;5070433;28;20384;-73
2021/05/14 04:47:49;;;;;;;0.40;0.20;;;7.40;99.90;;;;;;5069727;28;20391;-73
2021/05/14 04:50:17;;;;;;;0.40;0.20;;;7.50;99.90;;;;;;5070348;28;20376;-73
2021/05/14 04:52:43;;;;;;;0.40;0.20;;;8.20;99.90;;;;;;5071070;28;20427;-73
2021/05/14 04:55:09;;;;;;;0.40;0.30;;;7.70;99.90;;;;;;5070215;28;20404;-74
2021/05/14 04:57:35;;;;;;;0.90;0.60;;;7.70;99.90;;;;;;5070422;28;20391;-73
2021/05/14 05:00:00;;;;;;;0.40;0.20;;;8.50;99.90;;;;;;5071102;28;20463;-73
2021/05/14 05:02:26;;;;;;;0.40;0.20;;;7.50;99.90;;;;;;5070443;28;20392;-73
2021/05/14 05:04:51;;;;;;;0.40;0.20;;;7.70;99.90;;;;;;5070505;28;20388;-73
2021/05/14 05:07:17;;;;;;;0.80;0.80;;;8.40;99.90;;;;;;5061471;28;20391;-73
2021/05/14 05:09:43;;;;;;;0.40;0.20;;;8.50;99.90;;;;;;5070760;28;20384;-73
2021/05/14 05:12:09;;;;;;;0.90;0.90;;;7.60;99.90;;;;;;5070288;28;20730;-76
2021/05/14 05:14:34;;;;;;;0.40;0.20;;;7.90;99.90;;;;;;5070550;28;20800;-73
2021/05/14 05:17:00;;;;;;;0.40;0.20;;;8.50;99.90;;;;;;5069502;28;20888;-73
2021/05/14 05:19:25;;;;;;;0.40;0.40;;;8.10;99.90;;;;;;5069995;28;20407;-73
2021/05/14 05:21:51;;;;;;;0.40;0.30;;;7.60;99.90;;;;;;5068587;28;20379;-73
2021/05/14 05:24:17;;;;;;;0.40;0.30;;;8.00;99.90;;;;;;5049832;28;20938;-73
2021/05/14 05:26:42;;;;;;;1.50;0.80;;;8.10;99.90;;;;;;5050524;28;20399;-73
2021/05/14 05:29:08;;;;;;;0.80;0.80;;;8.00;99.90;;;;;;5050561;28;20470;-73
2021/05/14 05:31:34;;;;;;;0.40;0.20;;;9.60;99.90;;;;;;5053107;28;20492;-74
2021/05/14 05:33:59;;;;;;;0.80;0.60;;;8.50;99.90;;;;;;5058103;28;20412;-74
2021/05/14 05:36:25;;;;;;;0.40;0.20;;;8.40;99.90;;;;;;5061222;28;20943;-73
2021/05/14 05:38:51;;;;;;;0.40;0.20;;;8.50;99.90;;;;;;5061640;28;20520;-74
2021/05/14 05:41:17;;;;;;;0.40;0.30;;;8.50;99.90;;;;;;5049814;28;20381;-74
2021/05/14 05:43:44;;;;;;;0.40;0.20;;;9.10;99.90;;;;;;5050296;28;20829;-73
2021/05/14 05:46:10;;;;;;;0.43;0.32;;;8.30;99.90;;;;;;5049110;28;20404;-73
2021/05/14 05:48:36;;;;;;;0.40;0.20;;;8.80;99.90;;;;;;5056203;28;20393;-74
2021/05/14 05:51:02;;;;;;;0.40;0.30;;;8.90;99.90;;;;;;5060855;28;20398;-74
2021/05/14 05:53:27;;;;;;;0.40;0.30;;;8.90;99.90;;;;;;5062313;28;20384;-74
2021/05/14 05:55:53;;;;;;;0.40;0.30;;;9.10;99.90;;;;;;5073785;28;20406;-74
2021/05/14 05:58:19;;;;;;;0.40;0.30;;;9.10;99.90;;;;;;5073376;28;20934;-74
2021/05/14 06:00:45;;;;;;;0.40;0.30;;;9.20;99.90;;;;;;5057887;28;20453;-74
2021/05/14 06:03:11;;;;;;;0.40;0.30;;;9.30;99.90;;;;;;5074025;28;20467;-74
2021/05/14 06:05:38;;;;;;;0.40;0.20;;;9.40;99.90;;;;;;5073243;28;20387;-74
2021/05/14 06:08:04;;;;;;;0.40;0.20;;;9.40;99.90;;;;;;5071918;28;20383;-76
2021/05/14 06:10:30;;;;;;;0.40;0.20;;;9.40;99.90;;;;;;5062108;28;20535;-76
2021/05/14 06:12:55;;;;;;;0.40;0.20;;;9.60;99.90;;;;;;5062310;28;20382;-76
2021/05/14 06:15:22;;;;;;;0.40;0.20;;;9.70;99.90;;;;;;5061832;28;20895;-75
2021/05/14 06:17:49;;;;;;;0.40;0.20;;;9.80;99.90;;;;;;5054668;28;20385;-75
2021/05/14 06:20:18;;;;;;;0.40;0.20;;;10.00;99.90;;;;;;5059935;28;20399;-76
2021/05/14 06:22:44;;;;;;;1.00;0.50;;;9.90;99.90;;;;;;5061671;28;20870;-75
2021/05/14 06:25:10;;;;;;;0.40;0.20;;;10.00;99.90;;;;;;5062806;28;20485;-76
2021/05/14 06:27:36;;;;;;;0.40;0.20;;;10.00;99.90;;;;;;5063357;28;20399;-75
2021/05/14 06:30:03;;;;;;;0.40;0.30;;;10.10;99.90;;;;;;5062233;28;20542;-75
2021/05/14 06:32:29;;;;;;;0.40;0.30;;;10.30;99.90;;;;;;5057172;28;20997;-75
2021/05/14 06:34:55;;;;;;;0.40;0.20;;;10.30;99.90;;;;;;5060580;28;20382;-74
2021/05/14 06:37:21;;;;;;;0.40;0.30;;;10.50;99.90;;;;;;5056900;28;20474;-74
2021/05/14 06:39:48;;;;;;;0.40;0.30;;;10.60;99.90;;;;;;5057261;28;20481;-75
2021/05/14 06:42:13;;;;;;;0.40;0.40;;;10.60;99.90;;;;;;5052687;28;20416;-75
2021/05/14 06:44:39;;;;;;;0.40;0.20;;;10.80;99.90;;;;;;5053196;28;20424;-73
2021/05/14 06:47:05;;;;;;;0.40;0.20;;;11.00;99.90;;;;;;5053058;28;20816;-75
2021/05/14 06:49:30;;;;;;;0.40;0.20;;;10.80;99.90;;;;;;5070856;28;20745;-74
2021/05/14 06:51:56;;;;;;;0.40;0.20;;;11.50;99.90;;;;;;5072005;28;20457;-75
2021/05/14 06:54:22;;;;;;;0.40;0.30;;;11.10;99.90;;;;;;5072101;28;20383;-75
2021/05/14 06:56:48;;;;;;;0.40;0.20;;;11.10;99.90;;;;;;5072612;28;20486;-75
2021/05/14 06:59:13;;;;;;;0.40;0.20;;;11.20;99.90;;;;;;5072848;28;20865;-75
2021/05/14 07:01:39;;;;;;;0.40;0.20;;;11.30;99.90;;;;;;5072352;28;20423;-75
2021/05/14 07:04:05;;;;;;;0.40;0.30;;;11.40;99.90;;;;;;5072610;28;20391;-75
2021/05/14 07:06:31;;;;;;;0.40;0.30;;;11.60;99.90;;;;;;5071496;28;20478;-75
2021/05/14 07:08:56;;;;;;;0.40;0.20;;;11.70;99.90;;;;;;5072997;28;20376;-75
2021/05/14 07:11:22;;;;;;;0.40;0.20;;;11.90;99.90;;;;;;5072191;28;20392;-74
2021/05/14 07:13:48;;;;;;;0.40;0.20;;;12.00;99.90;;;;;;5072660;28;20798;-74
2021/05/14 07:16:13;;;;;;;0.40;0.20;;;12.40;99.90;;;;;;5072433;28;20505;-74
2021/05/14 07:18:39;;;;;;;0.40;0.20;;;12.50;99.90;;;;;;5070302;28;20490;-74
2021/05/14 07:21:05;;;;;;;0.40;0.20;;;12.50;99.90;;;;;;5070971;28;20441;-75
2021/05/14 07:23:32;;;;;;;0.40;0.20;;;12.60;99.90;;;;;;5070939;28;20387;-74
2021/05/14 07:25:58;;;;;;;0.40;0.20;;;12.70;99.90;;;;;;5071998;28;20383;-74
2021/05/14 07:28:24;;;;;;;0.40;0.30;;;12.90;99.90;;;;;;5071279;28;20883;-75
2021/05/14 07:30:50;;;;;;;0.40;0.20;;;12.90;99.90;;;;;;5071932;28;20470;-74
2021/05/14 07:33:15;;;;;;;0.40;0.20;;;13.10;99.90;;;;;;5071799;28;20742;-74
2021/05/14 07:35:41;;;;;;;0.40;0.40;;;13.00;99.90;;;;;;5070976;28;20936;-74
2021/05/14 07:38:10;;;;;;;0.40;0.20;;;13.10;99.90;;;;;;5068824;28;20574;-75
2021/05/14 07:40:43;;;;;;;0.40;0.20;;;13.20;99.80;;;;;;5071182;28;20387;-74
2021/05/14 07:43:39;;;;;;;0.40;0.20;;;12.80;98.60;;;;;;5069234;28;20798;-74
2021/05/14 07:46:04;;;;;;;0.50;0.40;;;13.60;98.60;;;;;;5065810;28;20398;-75
2021/05/14 07:48:30;;;;;;;0.40;0.20;;;13.20;98.80;;;;;;5070572;28;20383;-74
2021/05/14 07:51:00;;;;;;;0.40;0.20;;;13.10;99.60;;;;;;5068741;28;20387;-75
2021/05/14 07:53:26;;;;;;;0.40;0.30;;;14.10;99.90;;;;;;5068067;28;20388;-75
2021/05/14 07:55:54;;;;;;;0.40;0.30;;;13.20;98.70;;;;;;5071306;28;20648;-77
2021/05/14 07:58:32;;;;;;;0.40;0.30;;;13.30;98.70;;;;;;5071378;28;20465;-75
2021/05/14 08:01:20;;;;;;;0.40;0.20;;;12.90;98.60;;;;;;5071238;28;20513;-75
2021/05/14 08:03:46;;;;;;;0.40;0.30;;;13.50;98.10;;;;;;5061687;28;20396;-76
2021/05/14 08:06:18;;;;;;;0.40;0.20;;;13.40;98.40;;;;;;5074011;28;20395;-74
2021/05/14 08:08:51;;;;;;;0.40;0.20;;;13.50;98.80;;;;;;5069068;28;20449;-73
2021/05/14 08:11:17;;;;;;;0.40;0.20;;;13.50;98.00;;;;;;5068548;28;20399;-75
2021/05/14 08:13:46;;;;;;;0.40;0.20;;;13.50;98.20;;;;;;5070151;28;20379;-75
2021/05/14 08:16:14;;;;;;;0.40;0.20;;;13.50;97.60;;;;;;5070898;28;20399;-75
2021/05/14 08:18:51;;;;;;;0.40;0.20;;;13.60;96.50;;;;;;5070137;28;20402;-74
2021/05/14 08:21:19;;;;;;;0.40;0.20;;;13.40;96.80;;;;;;5065634;28;20422;-74
2021/05/14 08:23:45;;;;;;;0.40;0.20;;;13.60;95.30;;;;;;5069766;28;20386;-76
2021/05/14 08:26:12;;;;;;;0.40;0.20;;;13.70;94.60;;;;;;5070229;28;20459;-74
2021/05/14 08:28:38;;;;;;;0.40;0.20;;;13.50;91.80;;;;;;5069910;28;20867;-72
2021/05/14 08:31:04;;;;;;;0.40;0.30;;;13.60;91.50;;;;;;5069272;28;20888;-73
2021/05/14 08:33:30;;;;;;;0.40;0.20;;;13.70;90.90;;;;;;5069477;28;20380;-73
2021/05/14 08:35:56;;;;;;;0.40;0.20;;;13.60;85.70;;;;;;5070762;28;20402;-73
2021/05/14 08:38:22;;;;;;;0.40;0.20;;;13.70;90.70;;;;;;5070517;28;20412;-72
2021/05/14 08:40:48;;;;;;;0.40;0.20;;;13.90;90.30;;;;;;5070033;28;20765;-71
2021/05/14 08:43:15;;;;;;;0.40;0.20;;;13.80;89.30;;;;;;5070854;28;20384;-73
2021/05/14 08:45:41;;;;;;;0.40;0.30;;;13.90;91.00;;;;;;5070068;28;20380;-74
2021/05/14 08:48:11;;;;;;;0.40;0.20;;;14.00;81.50;;;;;;5070465;28;20976;-73
2021/05/14 08:50:39;;;;;;;0.40;0.30;;;14.00;80.20;;;;;;5070234;28;20380;-73
2021/05/14 08:53:04;;;;;;;0.40;0.30;;;14.30;79.50;;;;;;5070772;28;20372;-73
2021/05/14 08:55:30;;;;;;;0.40;0.30;;;14.20;76.10;;;;;;5069720;28;20461;-73
2021/05/14 08:57:56;;;;;;;0.40;0.20;;;14.30;78.90;;;;;;5069969;28;20391;-72
2021/05/14 09:00:22;;;;;;;0.40;0.20;;;14.30;76.90;;;;;;5070675;28;20387;-72
2021/05/14 09:02:50;;;;;;;0.40;0.20;;;14.30;78.50;;;;;;5070072;28;20380;-72
2021/05/14 09:05:27;;;;;;;0.40;0.20;;;14.30;79.60;;;;;;5070547;28;20843;-72
2021/05/14 09:07:55;;;;;;;0.40;0.20;;;14.20;82.40;;;;;;5054597;28;20395;-72
2021/05/14 09:10:22;;;;;;;0.40;0.20;;;14.20;85.20;;;;;;5070688;28;20390;-73
2021/05/14 09:12:47;;;;;;;0.40;0.20;;;14.40;80.40;;;;;;5069921;28;20424;-72
2021/05/14 09:15:30;;;;;;;0.40;0.20;;;14.60;81.40;;;;;;5070574;28;20387;-73
2021/05/14 09:18:12;;;;;;;0.40;0.20;;;14.60;80.30;;;;;;5069676;28;20402;-72
2021/05/14 09:20:45;;;;;;;0.40;0.40;;;14.60;76.30;;;;;;5067307;28;20391;-72
2021/05/14 09:23:29;;;;;;;0.40;0.20;;;14.80;77.60;;;;;;5070358;28;20391;-72
2021/05/14 09:25:58;;;;;;;0.40;0.20;;;14.60;77.70;;;;;;5065916;28;20445;-73
2021/05/14 09:28:47;;;;;;;0.40;0.20;;;14.50;78.20;;;;;;5070918;28;20408;-74
2021/05/14 09:31:28;;;;;;;0.40;0.20;;;15.20;80.00;;;;;;5071760;28;20382;-73
2021/05/14 09:34:01;;;;;;;0.40;0.20;;;14.80;75.70;;;;;;5072190;28;20409;-73
2021/05/14 09:36:35;;;;;;;0.40;0.20;;;14.80;75.70;;;;;;5073314;28;20461;-73
2021/05/14 09:39:06;;;;;;;0.80;0.80;;;14.80;77.00;;;;;;5073906;28;20407;-73
2021/05/14 09:41:43;;;;;;;0.40;0.20;;;16.90;78.70;;;;;;5088410;28;20423;-73
2021/05/14 09:44:23;;;;;;;0.40;0.20;;;14.90;76.40;;;;;;5073966;28;20388;-72
2021/05/14 09:47:07;;;;;;;0.40;0.20;;;15.00;75.10;;;;;;5068091;28;20665;-72
2021/05/14 09:49:33;;;;;;;0.40;0.20;;;15.10;74.40;;;;;;5066923;28;20437;-73
2021/05/14 09:52:09;;;;;;;0.40;0.30;;;15.30;75.40;;;;;;5062038;28;20392;-75
2021/05/14 09:54:40;;;;;;;0.40;0.20;;;15.50;75.70;;;;;;5059843;28;20468;-75
2021/05/14 09:59:56;;;;;;;0.40;0.30;;;15.60;81.10;;;;;;5060020;28;20419;-75
2021/05/14 10:02:33;;;;;;;0.40;0.20;;;15.60;77.80;;;;;;5061056;28;20420;-73
2021/05/14 10:05:00;;;;;;;0.40;0.20;;;15.60;77.40;;;;;;5059511;28;20912;-80
2021/05/14 10:07:28;;;;;;;0.40;0.20;;;15.50;78.60;;;;;;5060627;28;20388;-73
2021/05/14 10:09:58;;;;;;;0.40;0.20;;;15.40;76.90;;;;;;5058999;28;20510;-73
2021/05/14 10:12:24;;;;;;;0.40;0.30;;;15.70;76.20;;;;;;5060706;28;20413;-74
2021/05/14 10:14:58;;;;;;;0.40;0.20;;;16.10;76.80;;;;;;5059007;28;20502;-76
2021/05/14 10:17:24;;;;;;;0.40;0.30;;;16.30;74.30;;;;;;5059151;28;21547;-75
2021/05/14 10:19:51;;;;;;;0.40;0.20;;;16.20;75.40;;;;;;5058646;28;20533;-77
2021/05/14 10:22:18;;;;;;;0.40;0.20;;;16.30;73.60;;;;;;5059735;28;20387;-75
2021/05/14 10:24:59;;;;;;;0.40;0.20;;;16.10;73.70;;;;;;5059499;28;20805;-75
2021/05/14 10:27:48;;;;;;;0.40;0.20;;;16.10;70.80;;;;;;5060266;28;20391;-78
2021/05/14 10:30:14;;;;;;;0.40;0.20;;;16.30;70.80;;;;;;5059993;28;20400;-75
2021/05/14 10:32:43;;;;;;;0.40;0.20;;;16.60;70.90;;;;;;5060246;28;20395;-76
2021/05/14 10:35:31;;;;;;;0.40;0.20;;;17.00;70.70;;;;;;5058403;28;20399;-72
2021/05/14 10:37:57;;;;;;;0.40;0.30;;;17.30;70.90;;;;;;5059179;28;20407;-76
2021/05/14 10:40:28;;;;;;;0.40;0.20;;;17.20;67.30;;;;;;5057722;28;20400;-75
2021/05/14 10:42:55;;;;;;;0.40;0.20;;;17.00;68.10;;;;;;5058729;28;20427;-75
2021/05/14 10:45:48;;;;;;;0.40;0.20;;;16.70;68.90;;;;;;5058845;28;20475;-73
2021/05/14 10:48:23;;;;;;;0.40;0.20;;;16.70;68.50;;;;;;5035164;28;20449;-73
2021/05/14 10:50:58;;;;;;;0.40;0.20;;;16.50;67.50;;;;;;5056847;28;20400;-73
2021/05/14 10:53:37;;;;;;;2.90;0.50;;;16.10;75.20;;;;;;5058627;28;20423;-74
2021/05/14 10:56:08;;;;;;;0.40;0.20;;;15.90;80.80;;;;;;5056283;28;20400;-75
2021/05/14 10:59:06;;;;;;;0.40;0.20;;;15.70;82.80;;;;;;5059398;28;20601;-79
2021/05/14 11:01:39;;;;;;;0.40;0.20;;;15.70;83.10;;;;;;5059559;28;20802;-75
2021/05/14 11:04:11;;;;;;;0.60;0.50;;;15.80;84.30;;;;;;5059542;28;20388;-80
2021/05/14 11:06:41;;;;;;;0.40;0.30;;;15.50;85.50;;;;;;5058448;28;20395;-74
2021/05/14 11:09:12;;;;;;;0.40;0.20;;;15.20;86.40;;;;;;5060405;28;20792;-74
2021/05/14 11:12:24;;;;;;;0.40;0.20;;;15.60;90.10;;;;;;5059503;28;21129;-74
2021/05/14 11:14:56;;;;;;;0.40;0.30;;;16.20;90.40;;;;;;4958005;28;20759;-76
2021/05/14 11:17:22;;;;;;;0.40;0.30;;;17.30;88.50;;;;;;5051384;28;20392;-73
2021/05/14 11:19:49;;;;;;;0.40;0.30;;;17.20;87.10;;;;;;5058267;28;20399;-73
2021/05/14 11:22:27;;;;;;;0.40;0.20;;;17.70;89.20;;;;;;5058412;28;20916;-73
2021/05/14 11:25:14;;;;;;;0.40;0.20;;;17.80;86.70;;;;;;5059195;28;20406;-76
2021/05/14 11:27:42;;;;;;;0.40;0.20;;;18.20;81.90;;;;;;5091235;28;21232;-71
2021/05/14 11:30:15;;;;;;;0.40;0.30;;;17.30;83.10;;;;;;5058713;28;20399;-74
2021/05/14 11:32:41;;;;;;;0.40;0.30;;;17.40;82.90;;;;;;5059364;28;20384;-78
2021/05/14 11:35:20;;;;;;;0.40;0.20;;;18.00;83.60;;;;;;5058650;28;20421;-75
2021/05/14 11:40:42;;;;;;;0.40;0.30;;;18.90;78.80;;;;;;5059033;28;20490;-74
2021/05/14 11:43:13;;;;;;;0.40;0.20;;;19.50;77.90;;;;;;5059826;28;20422;-73
2021/05/14 11:45:41;;;;;;;0.40;0.30;;;18.50;76.80;;;;;;5057098;28;20467;-73
2021/05/14 11:48:14;;;;;;;0.40;0.30;;;18.60;77.50;;;;;;5059374;28;20422;-81
2021/05/14 11:50:42;;;;;;;0.40;0.20;;;18.80;72.50;;;;;;5056337;28;20821;-74
2021/05/14 11:53:10;;;;;;;0.40;0.20;;;19.00;75.00;;;;;;5059265;28;20414;-80
2021/05/14 11:55:38;;;;;;;0.40;0.30;;;19.10;71.60;;;;;;5057950;28;20391;-75
2021/05/14 11:58:04;;;;;;;0.40;0.27;;;18.90;73.10;;;;;;5059358;28;20892;-74
2021/05/14 12:00:31;;;;;;;0.50;0.40;;;18.50;72.20;;;;;;5058490;28;20395;-73
2021/05/14 12:02:59;;;;;;;0.40;0.20;;;17.70;79.30;;;;;;5058596;28;20384;-74
2021/05/14 12:05:26;;;;;;;0.40;0.20;;;17.90;80.40;;;;;;5058050;28;20387;-74
2021/05/14 12:07:52;;;;;;;0.40;0.20;;;17.80;75.20;;;;;;5057729;28;20818;-74
2021/05/14 12:10:20;;;;;;;0.40;0.30;;;16.90;72.90;;;;;;5058295;28;20395;-73
2021/05/14 12:12:47;;;;;;;0.40;0.20;;;17.50;74.70;;;;;;5056628;28;20445;-73
2021/05/14 12:15:20;;;;;;;0.40;0.20;;;17.80;74.50;;;;;;5056808;28;20396;-74
2021/05/14 12:17:56;;;;;;;0.40;0.20;;;17.90;75.50;;;;;;5057485;28;20481;-74
2021/05/14 12:20:29;;;;;;;0.40;0.30;;;18.00;70.80;;;;;;5057965;28;20391;-74
2021/05/14 12:22:58;;;;;;;0.40;0.20;;;18.10;72.80;;;;;;5069987;28;20380;-74
2021/05/14 12:25:25;;;;;;;0.40;0.20;;;19.20;70.90;;;;;;5068795;28;20487;-72
2021/05/14 12:27:51;;;;;;;0.40;0.30;;;19.40;73.80;;;;;;5069795;28;20399;-75
2021/05/14 12:30:18;;;;;;;0.40;0.30;;;20.10;68.60;;;;;;5070053;28;20746;-73
2021/05/14 12:32:57;;;;;;;0.40;0.20;;;18.70;65.70;;;;;;5069559;28;20380;-74
2021/05/14 12:35:24;;;;;;;0.40;0.30;;;18.50;69.70;;;;;;5070216;28;20408;-74
2021/05/14 12:37:59;;;;;;;0.40;0.30;;;17.70;70.80;;;;;;5069743;28;20813;-74
2021/05/14 12:40:33;;;;;;;0.40;0.20;;;17.40;71.90;;;;;;5069799;28;20396;-73
2021/05/14 12:43:08;;;;;;;0.40;0.20;;;17.20;75.30;;;;;;5069027;28;20649;-73
2021/05/14 12:45:36;;;;;;;0.40;0.20;;;16.90;76.50;;;;;;5070260;28;20386;-73
2021/05/14 12:48:03;;;;;;;0.40;0.20;;;16.70;79.50;;;;;;5069885;28;20398;-74
2021/05/14 12:50:29;;;;;;;0.40;0.20;;;16.30;78.60;;;;;;5070018;28;20436;-73
2021/05/14 12:52:54;;;;;;;0.40;0.30;;;16.30;82.00;;;;;;5069505;28;20772;-73
2021/05/14 12:55:21;;;;;;;0.40;0.30;;;16.30;81.80;;;;;;5069668;28;20449;-74
2021/05/14 12:58:07;;;;;;;0.40;0.30;;;16.60;81.30;;;;;;5069479;28;20375;-73
2021/05/14 13:00:37;;;;;;;0.40;0.20;;;16.60;80.50;;;;;;5069952;28;20897;-73
2021/05/14 13:03:09;;;;;;;0.40;0.28;;;16.70;78.50;;;;;;5068796;28;20783;-73
2021/05/14 13:05:38;;;;;;;0.40;0.20;;;16.60;81.70;;;;;;5070050;28;20525;-73
2021/05/14 13:08:06;;;;;;;0.40;0.30;;;16.60;79.60;;;;;;5069588;28;20539;-74